sensor_id;sensor_type;location;lat;lon;timestamp;P1;durP1;ratioP1;P2;durP2;ratioP2
1174;SDS011;576;48.418;10.074;2024-01-11T00:00:49;9.50;;;8.60;;
1174;SDS011;576;48.418;10.074;2024-01-11T00:03:17;10.27;;;9.27;;
1174;SDS011;576;48.418;10.074;2024-01-11T00:05:47;8.60;;;7.83;;
1174;SDS011;576;48.418;10.074;2024-01-11T00:08:15;11.07;;;8.43;;
1174;SDS011;576;48.418;10.074;2024-01-11T00:10:44;9.87;;;8.90;;
1174;SDS011;576;48.418;10.074;2024-01-11T00:13:12;10.40;;;9.37;;
1174;SDS011;576;48.418;10.074;2024-01-11T00:15:40;10.00;;;8.00;;
1174;SDS011;576;48.418;10.074;2024-01-11T00:18:08;10.30;;;9.30;;
1174;SDS011;576;48.418;10.074;2024-01-11T00:20:37;8.97;;;8.07;;
1174;SDS011;576;48.418;10.074;2024-01-11T00:23:07;9.40;;;8.40;;
1174;SDS011;576;48.418;10.074;2024-01-11T00:25:35;10.40;;;9.40;;
1174;SDS011;576;48.418;10.074;2024-01-11T00:28:03;10.00;;;9.00;;
1174;SDS011;576;48.418;10.074;2024-01-11T00:30:32;9.67;;;8.87;;
1174;SDS011;576;48.418;10.074;2024-01-11T00:33:00;10.30;;;9.30;;
1174;SDS011;576;48.418;10.074;2024-01-11T00:35:29;10.03;;;9.03;;
1174;SDS011;576;48.418;10.074;2024-01-11T00:37:57;8.77;;;7.97;;
1174;SDS011;576;48.418;10.074;2024-01-11T00:40:27;9.00;;;8.10;;
1174;SDS011;576;48.418;10.074;2024-01-11T00:42:55;9.03;;;8.23;;
1174;SDS011;576;48.418;10.074;2024-01-11T00:45:23;9.30;;;8.40;;
1174;SDS011;576;48.418;10.074;2024-01-11T00:47:52;10.87;;;9.03;;
1174;SDS011;576;48.418;10.074;2024-01-11T00:50:20;8.97;;;8.10;;
1174;SDS011;576;48.418;10.074;2024-01-11T00:52:48;9.13;;;8.33;;
1174;SDS011;576;48.418;10.074;2024-01-11T00:55:17;9.87;;;9.07;;
1174;SDS011;576;48.418;10.074;2024-01-11T00:57:46;10.27;;;9.27;;
1174;SDS011;576;48.418;10.074;2024-01-11T01:00:14;8.87;;;8.10;;
1174;SDS011;576;48.418;10.074;2024-01-11T01:02:43;9.53;;;8.60;;
1174;SDS011;576;48.418;10.074;2024-01-11T01:05:11;9.10;;;8.20;;
1174;SDS011;576;48.418;10.074;2024-01-11T01:07:40;9.40;;;8.50;;
1174;SDS011;576;48.418;10.074;2024-01-11T01:10:08;9.00;;;8.10;;
1174;SDS011;576;48.418;10.074;2024-01-11T01:12:36;9.40;;;8.50;;
1174;SDS011;576;48.418;10.074;2024-01-11T01:15:06;8.83;;;8.03;;
1174;SDS011;576;48.418;10.074;2024-01-11T01:17:35;8.87;;;8.07;;
1174;SDS011;576;48.418;10.074;2024-01-11T01:20:05;9.50;;;8.63;;
1174;SDS011;576;48.418;10.074;2024-01-11T01:22:34;9.53;;;8.67;;
1174;SDS011;576;48.418;10.074;2024-01-11T01:25:02;9.80;;;8.80;;
1174;SDS011;576;48.418;10.074;2024-01-11T01:27:31;9.30;;;8.40;;
1174;SDS011;576;48.418;10.074;2024-01-11T01:30:00;9.07;;;8.17;;
1174;SDS011;576;48.418;10.074;2024-01-11T01:32:29;10.10;;;9.20;;
1174;SDS011;576;48.418;10.074;2024-01-11T01:34:58;9.93;;;8.53;;
1174;SDS011;576;48.418;10.074;2024-01-11T01:37:26;9.43;;;8.60;;
1174;SDS011;576;48.418;10.074;2024-01-11T01:39:54;9.90;;;8.90;;
1174;SDS011;576;48.418;10.074;2024-01-11T01:42:22;9.23;;;8.07;;
1174;SDS011;576;48.418;10.074;2024-01-11T01:44:51;10.60;;;9.37;;
1174;SDS011;576;48.418;10.074;2024-01-11T01:47:19;9.50;;;8.60;;
1174;SDS011;576;48.418;10.074;2024-01-11T01:49:49;9.40;;;8.50;;
1174;SDS011;576;48.418;10.074;2024-01-11T01:52:17;9.50;;;8.60;;
1174;SDS011;576;48.418;10.074;2024-01-11T01:54:47;10.23;;;8.97;;
1174;SDS011;576;48.418;10.074;2024-01-11T01:57:17;10.00;;;9.10;;
1174;SDS011;576;48.418;10.074;2024-01-11T01:59:48;9.67;;;8.77;;
1174;SDS011;576;48.418;10.074;2024-01-11T02:02:19;10.40;;;9.50;;
1174;SDS011;576;48.418;10.074;2024-01-11T02:04:49;9.73;;;8.73;;
1174;SDS011;576;48.418;10.074;2024-01-11T02:07:18;9.77;;;8.90;;
1174;SDS011;576;48.418;10.074;2024-01-11T02:09:47;8.90;;;8.00;;
1174;SDS011;576;48.418;10.074;2024-01-11T02:12:15;10.10;;;9.10;;
1174;SDS011;576;48.418;10.074;2024-01-11T02:14:44;9.47;;;8.53;;
1174;SDS011;576;48.418;10.074;2024-01-11T02:17:12;10.00;;;9.00;;
1174;SDS011;576;48.418;10.074;2024-01-11T02:19:40;10.40;;;9.40;;
1174;SDS011;576;48.418;10.074;2024-01-11T02:22:12;10.67;;;9.67;;
1174;SDS011;576;48.418;10.074;2024-01-11T02:24:49;9.43;;;8.53;;
1174;SDS011;576;48.418;10.074;2024-01-11T02:27:19;9.77;;;8.70;;
1174;SDS011;576;48.418;10.074;2024-01-11T02:29:47;10.50;;;9.57;;
1174;SDS011;576;48.418;10.074;2024-01-11T02:32:15;9.00;;;8.10;;
1174;SDS011;576;48.418;10.074;2024-01-11T02:34:44;9.40;;;8.50;;
1174;SDS011;576;48.418;10.074;2024-01-11T02:37:12;8.67;;;7.87;;
1174;SDS011;576;48.418;10.074;2024-01-11T02:39:41;10.43;;;9.43;;
1174;SDS011;576;48.418;10.074;2024-01-11T02:42:10;8.93;;;7.93;;
1174;SDS011;576;48.418;10.074;2024-01-11T02:44:39;9.40;;;8.50;;
1174;SDS011;576;48.418;10.074;2024-01-11T02:47:07;9.33;;;8.53;;
1174;SDS011;576;48.418;10.074;2024-01-11T02:49:35;8.87;;;8.17;;
1174;SDS011;576;48.418;10.074;2024-01-11T02:52:04;10.23;;;8.90;;
1174;SDS011;576;48.418;10.074;2024-01-11T02:54:32;9.10;;;8.13;;
1174;SDS011;576;48.418;10.074;2024-01-11T02:57:00;10.90;;;9.03;;
1174;SDS011;576;48.418;10.074;2024-01-11T02:59:30;9.60;;;8.60;;
1174;SDS011;576;48.418;10.074;2024-01-11T03:01:58;10.70;;;9.57;;
1174;SDS011;576;48.418;10.074;2024-01-11T03:04:27;9.73;;;8.90;;
1174;SDS011;576;48.418;10.074;2024-01-11T03:06:55;9.43;;;8.37;;
1174;SDS011;576;48.418;10.074;2024-01-11T03:09:23;8.63;;;7.60;;
1174;SDS011;576;48.418;10.074;2024-01-11T03:11:51;9.50;;;8.50;;
1174;SDS011;576;48.418;10.074;2024-01-11T03:14:20;8.63;;;7.73;;
1174;SDS011;576;48.418;10.074;2024-01-11T03:16:49;9.43;;;8.53;;
1174;SDS011;576;48.418;10.074;2024-01-11T03:19:18;8.87;;;8.03;;
1174;SDS011;576;48.418;10.074;2024-01-11T03:21:46;9.00;;;8.10;;
1174;SDS011;576;48.418;10.074;2024-01-11T03:24:14;8.80;;;7.67;;
1174;SDS011;576;48.418;10.074;2024-01-11T03:26:42;9.17;;;8.33;;
1174;SDS011;576;48.418;10.074;2024-01-11T03:29:11;9.00;;;8.20;;
1174;SDS011;576;48.418;10.074;2024-01-11T03:31:39;9.13;;;8.00;;
1174;SDS011;576;48.418;10.074;2024-01-11T03:34:11;9.87;;;8.93;;
1174;SDS011;576;48.418;10.074;2024-01-11T03:36:39;8.37;;;7.53;;
1174;SDS011;576;48.418;10.074;2024-01-11T03:39:07;9.00;;;8.20;;
1174;SDS011;576;48.418;10.074;2024-01-11T03:41:36;8.87;;;7.97;;
1174;SDS011;576;48.418;10.074;2024-01-11T03:44:04;8.70;;;7.90;;
1174;SDS011;576;48.418;10.074;2024-01-11T03:46:33;9.53;;;8.53;;
1174;SDS011;576;48.418;10.074;2024-01-11T03:49:01;8.53;;;7.73;;
1174;SDS011;576;48.418;10.074;2024-01-11T03:51:31;9.03;;;8.13;;
1174;SDS011;576;48.418;10.074;2024-01-11T03:53:59;8.27;;;7.47;;
1174;SDS011;576;48.418;10.074;2024-01-11T03:56:27;10.40;;;8.60;;
1174;SDS011;576;48.418;10.074;2024-01-11T03:58:55;10.70;;;9.60;;
1174;SDS011;576;48.418;10.074;2024-01-11T04:01:24;9.80;;;8.80;;
1174;SDS011;576;48.418;10.074;2024-01-11T04:03:52;8.87;;;8.07;;
1174;SDS011;576;48.418;10.074;2024-01-11T04:06:20;8.43;;;7.53;;
1174;SDS011;576;48.418;10.074;2024-01-11T04:08:51;9.47;;;8.57;;
1174;SDS011;576;48.418;10.074;2024-01-11T04:11:21;8.40;;;7.60;;
1174;SDS011;576;48.418;10.074;2024-01-11T04:13:49;8.83;;;7.87;;
1174;SDS011;576;48.418;10.074;2024-01-11T04:16:17;9.60;;;8.43;;
1174;SDS011;576;48.418;10.074;2024-01-11T04:18:45;8.47;;;7.73;;
1174;SDS011;576;48.418;10.074;2024-01-11T04:21:21;8.20;;;7.50;;
1174;SDS011;576;48.418;10.074;2024-01-11T04:23:49;8.10;;;7.40;;
1174;SDS011;576;48.418;10.074;2024-01-11T04:26:19;8.43;;;7.63;;
1174;SDS011;576;48.418;10.074;2024-01-11T04:28:47;8.37;;;7.57;;
1174;SDS011;576;48.418;10.074;2024-01-11T04:31:16;9.03;;;8.20;;
1174;SDS011;576;48.418;10.074;2024-01-11T04:33:45;10.60;;;8.50;;
1174;SDS011;576;48.418;10.074;2024-01-11T04:36:13;8.80;;;7.90;;
1174;SDS011;576;48.418;10.074;2024-01-11T04:38:42;10.23;;;9.10;;
1174;SDS011;576;48.418;10.074;2024-01-11T04:41:12;8.73;;;7.80;;
1174;SDS011;576;48.418;10.074;2024-01-11T04:43:42;9.20;;;7.50;;
1174;SDS011;576;48.418;10.074;2024-01-11T04:46:15;9.03;;;8.13;;
1174;SDS011;576;48.418;10.074;2024-01-11T04:48:43;9.43;;;8.10;;
1174;SDS011;576;48.418;10.074;2024-01-11T04:51:12;8.63;;;7.77;;
1174;SDS011;576;48.418;10.074;2024-01-11T04:53:41;9.37;;;8.33;;
1174;SDS011;576;48.418;10.074;2024-01-11T04:56:13;8.10;;;7.10;;
1174;SDS011;576;48.418;10.074;2024-01-11T04:58:43;8.50;;;7.70;;
1174;SDS011;576;48.418;10.074;2024-01-11T05:01:12;9.47;;;8.57;;
1174;SDS011;576;48.418;10.074;2024-01-11T05:03:41;9.10;;;8.27;;
1174;SDS011;576;48.418;10.074;2024-01-11T05:06:14;8.00;;;7.20;;
1174;SDS011;576;48.418;10.074;2024-01-11T05:08:43;9.00;;;8.10;;
1174;SDS011;576;48.418;10.074;2024-01-11T05:11:17;8.73;;;7.90;;
1174;SDS011;576;48.418;10.074;2024-01-11T05:13:46;9.87;;;8.87;;
1174;SDS011;576;48.418;10.074;2024-01-11T05:16:19;10.70;;;8.77;;
1174;SDS011;576;48.418;10.074;2024-01-11T05:18:49;9.53;;;8.57;;
1174;SDS011;576;48.418;10.074;2024-01-11T05:21:18;9.40;;;8.40;;
1174;SDS011;576;48.418;10.074;2024-01-11T05:23:46;10.40;;;8.53;;
1174;SDS011;576;48.418;10.074;2024-01-11T05:26:16;8.33;;;7.50;;
1174;SDS011;576;48.418;10.074;2024-01-11T05:28:45;9.23;;;8.33;;
1174;SDS011;576;48.418;10.074;2024-01-11T05:31:14;10.20;;;8.93;;
1174;SDS011;576;48.418;10.074;2024-01-11T05:33:44;9.67;;;8.77;;
1174;SDS011;576;48.418;10.074;2024-01-11T05:36:13;8.80;;;8.00;;
1174;SDS011;576;48.418;10.074;2024-01-11T05:38:42;11.83;;;8.80;;
1174;SDS011;576;48.418;10.074;2024-01-11T05:41:10;9.80;;;8.80;;
1174;SDS011;576;48.418;10.074;2024-01-11T05:43:40;10.40;;;9.30;;
1174;SDS011;576;48.418;10.074;2024-01-11T05:46:09;9.50;;;8.60;;
1174;SDS011;576;48.418;10.074;2024-01-11T05:48:37;9.63;;;8.63;;
1174;SDS011;576;48.418;10.074;2024-01-11T05:51:05;9.10;;;8.20;;
1174;SDS011;576;48.418;10.074;2024-01-11T05:53:34;9.17;;;8.17;;
1174;SDS011;576;48.418;10.074;2024-01-11T05:56:06;9.80;;;8.67;;
1174;SDS011;576;48.418;10.074;2024-01-11T05:58:35;9.93;;;8.53;;
1174;SDS011;576;48.418;10.074;2024-01-11T06:01:06;9.50;;;8.60;;
1174;SDS011;576;48.418;10.074;2024-01-11T06:03:35;11.90;;;10.07;;
1174;SDS011;576;48.418;10.074;2024-01-11T06:06:05;9.53;;;8.57;;
1174;SDS011;576;48.418;10.074;2024-01-11T06:08:34;10.30;;;8.20;;
1174;SDS011;576;48.418;10.074;2024-01-11T06:11:03;11.13;;;8.83;;
1174;SDS011;576;48.418;10.074;2024-01-11T06:13:32;13.60;;;8.70;;
1174;SDS011;576;48.418;10.074;2024-01-11T06:16:00;8.77;;;7.93;;
1174;SDS011;576;48.418;10.074;2024-01-11T06:18:30;11.27;;;9.13;;
1174;SDS011;576;48.418;10.074;2024-01-11T06:20:58;10.13;;;8.83;;
1174;SDS011;576;48.418;10.074;2024-01-11T06:23:27;9.03;;;8.13;;
1174;SDS011;576;48.418;10.074;2024-01-11T06:25:55;9.77;;;8.27;;
1174;SDS011;576;48.418;10.074;2024-01-11T06:28:23;8.27;;;7.40;;
1174;SDS011;576;48.418;10.074;2024-01-11T06:30:51;12.27;;;8.63;;
1174;SDS011;576;48.418;10.074;2024-01-11T06:33:20;10.37;;;9.43;;
1174;SDS011;576;48.418;10.074;2024-01-11T06:35:49;9.60;;;8.60;;
1174;SDS011;576;48.418;10.074;2024-01-11T06:38:18;8.27;;;7.30;;
1174;SDS011;576;48.418;10.074;2024-01-11T06:40:46;9.27;;;7.87;;
1174;SDS011;576;48.418;10.074;2024-01-11T06:43:15;11.47;;;8.73;;
1174;SDS011;576;48.418;10.074;2024-01-11T06:45:43;9.70;;;8.70;;
1174;SDS011;576;48.418;10.074;2024-01-11T06:48:12;12.17;;;9.80;;
1174;SDS011;576;48.418;10.074;2024-01-11T06:50:40;11.63;;;8.13;;
1174;SDS011;576;48.418;10.074;2024-01-11T06:53:10;12.27;;;9.77;;
1174;SDS011;576;48.418;10.074;2024-01-11T06:55:38;12.50;;;9.50;;
1174;SDS011;576;48.418;10.074;2024-01-11T06:58:07;11.67;;;8.87;;
1174;SDS011;576;48.418;10.074;2024-01-11T07:00:35;11.93;;;8.80;;
1174;SDS011;576;48.418;10.074;2024-01-11T07:03:09;10.70;;;9.13;;
1174;SDS011;576;48.418;10.074;2024-01-11T07:05:38;11.00;;;9.03;;
1174;SDS011;576;48.418;10.074;2024-01-11T07:08:06;12.50;;;8.87;;
1174;SDS011;576;48.418;10.074;2024-01-11T07:10:36;9.63;;;8.43;;
1174;SDS011;576;48.418;10.074;2024-01-11T07:13:05;11.27;;;9.43;;
1174;SDS011;576;48.418;10.074;2024-01-11T07:15:33;10.97;;;9.17;;
1174;SDS011;576;48.418;10.074;2024-01-11T07:18:01;11.27;;;9.40;;
1174;SDS011;576;48.418;10.074;2024-01-11T07:20:30;13.07;;;9.13;;
1174;SDS011;576;48.418;10.074;2024-01-11T07:22:58;12.77;;;10.00;;
1174;SDS011;576;48.418;10.074;2024-01-11T07:25:27;10.10;;;8.90;;
1174;SDS011;576;48.418;10.074;2024-01-11T07:27:57;13.50;;;9.60;;
1174;SDS011;576;48.418;10.074;2024-01-11T07:30:25;10.90;;;8.93;;
1174;SDS011;576;48.418;10.074;2024-01-11T07:32:53;11.80;;;10.27;;
1174;SDS011;576;48.418;10.074;2024-01-11T07:35:22;9.40;;;8.43;;
1174;SDS011;576;48.418;10.074;2024-01-11T07:37:50;10.70;;;9.40;;
1174;SDS011;576;48.418;10.074;2024-01-11T07:40:18;11.00;;;8.83;;
1174;SDS011;576;48.418;10.074;2024-01-11T07:42:47;10.63;;;9.17;;
1174;SDS011;576;48.418;10.074;2024-01-11T07:45:17;11.03;;;9.93;;
1174;SDS011;576;48.418;10.074;2024-01-11T07:47:46;12.47;;;9.10;;
1174;SDS011;576;48.418;10.074;2024-01-11T07:50:14;10.00;;;9.00;;
1174;SDS011;576;48.418;10.074;2024-01-11T07:52:42;10.70;;;9.20;;
1174;SDS011;576;48.418;10.074;2024-01-11T07:55:12;12.40;;;9.60;;
1174;SDS011;576;48.418;10.074;2024-01-11T07:57:40;10.53;;;9.43;;
1174;SDS011;576;48.418;10.074;2024-01-11T08:00:08;11.67;;;10.43;;
1174;SDS011;576;48.418;10.074;2024-01-11T08:02:41;12.50;;;10.10;;
1174;SDS011;576;48.418;10.074;2024-01-11T08:05:10;11.80;;;9.70;;
1174;SDS011;576;48.418;10.074;2024-01-11T08:07:38;11.20;;;9.63;;
1174;SDS011;576;48.418;10.074;2024-01-11T08:10:08;11.13;;;9.70;;
1174;SDS011;576;48.418;10.074;2024-01-11T08:12:36;15.80;;;10.10;;
1174;SDS011;576;48.418;10.074;2024-01-11T08:15:05;11.00;;;9.53;;
1174;SDS011;576;48.418;10.074;2024-01-11T08:17:39;12.30;;;10.07;;
1174;SDS011;576;48.418;10.074;2024-01-11T08:20:14;10.10;;;9.00;;
1174;SDS011;576;48.418;10.074;2024-01-11T08:22:43;12.13;;;10.93;;
1174;SDS011;576;48.418;10.074;2024-01-11T08:25:12;13.03;;;11.47;;
1174;SDS011;576;48.418;10.074;2024-01-11T08:27:41;11.83;;;9.90;;
1174;SDS011;576;48.418;10.074;2024-01-11T08:30:09;10.97;;;9.87;;
1174;SDS011;576;48.418;10.074;2024-01-11T08:32:39;12.93;;;10.30;;
1174;SDS011;576;48.418;10.074;2024-01-11T08:35:11;13.47;;;10.70;;
1174;SDS011;576;48.418;10.074;2024-01-11T08:37:39;13.73;;;11.33;;
1174;SDS011;576;48.418;10.074;2024-01-11T08:40:08;12.73;;;10.30;;
1174;SDS011;576;48.418;10.074;2024-01-11T08:42:37;11.13;;;9.93;;
1174;SDS011;576;48.418;10.074;2024-01-11T08:45:07;12.90;;;11.60;;
1174;SDS011;576;48.418;10.074;2024-01-11T08:47:36;12.23;;;10.90;;
1174;SDS011;576;48.418;10.074;2024-01-11T08:50:06;11.40;;;10.27;;
1174;SDS011;576;48.418;10.074;2024-01-11T08:52:36;13.10;;;11.07;;
1174;SDS011;576;48.418;10.074;2024-01-11T08:55:05;12.20;;;10.20;;
1174;SDS011;576;48.418;10.074;2024-01-11T08:57:34;14.53;;;10.60;;
1174;SDS011;576;48.418;10.074;2024-01-11T09:00:04;12.43;;;10.50;;
1174;SDS011;576;48.418;10.074;2024-01-11T09:02:33;13.30;;;12.00;;
1174;SDS011;576;48.418;10.074;2024-01-11T09:05:02;11.23;;;10.07;;
1174;SDS011;576;48.418;10.074;2024-01-11T09:07:36;15.47;;;11.20;;
1174;SDS011;576;48.418;10.074;2024-01-11T09:10:05;12.57;;;11.27;;
1174;SDS011;576;48.418;10.074;2024-01-11T09:12:36;13.37;;;11.07;;
1174;SDS011;576;48.418;10.074;2024-01-11T09:15:04;13.27;;;10.77;;
1174;SDS011;576;48.418;10.074;2024-01-11T09:17:34;13.10;;;11.27;;
1174;SDS011;576;48.418;10.074;2024-01-11T09:20:04;12.27;;;10.60;;
1174;SDS011;576;48.418;10.074;2024-01-11T09:22:33;13.40;;;12.03;;
1174;SDS011;576;48.418;10.074;2024-01-11T09:25:03;11.70;;;10.43;;
1174;SDS011;576;48.418;10.074;2024-01-11T09:27:33;12.30;;;11.00;;
1174;SDS011;576;48.418;10.074;2024-01-11T09:30:02;12.73;;;11.47;;
1174;SDS011;576;48.418;10.074;2024-01-11T09:32:31;12.57;;;11.30;;
1174;SDS011;576;48.418;10.074;2024-01-11T09:34:59;11.93;;;10.50;;
1174;SDS011;576;48.418;10.074;2024-01-11T09:37:28;12.43;;;10.97;;
1174;SDS011;576;48.418;10.074;2024-01-11T09:39:56;12.80;;;10.50;;
1174;SDS011;576;48.418;10.074;2024-01-11T09:42:25;13.47;;;11.00;;
1174;SDS011;576;48.418;10.074;2024-01-11T09:44:54;10.93;;;9.80;;
1174;SDS011;576;48.418;10.074;2024-01-11T09:47:24;13.90;;;11.07;;
1174;SDS011;576;48.418;10.074;2024-01-11T09:49:53;12.53;;;11.23;;
1174;SDS011;576;48.418;10.074;2024-01-11T09:52:22;12.83;;;10.93;;
1174;SDS011;576;48.418;10.074;2024-01-11T09:54:52;12.33;;;10.60;;
1174;SDS011;576;48.418;10.074;2024-01-11T09:57:22;12.77;;;10.70;;
1174;SDS011;576;48.418;10.074;2024-01-11T09:59:56;11.43;;;10.23;;
1174;SDS011;576;48.418;10.074;2024-01-11T10:02:25;12.90;;;11.60;;
1174;SDS011;576;48.418;10.074;2024-01-11T10:04:54;12.80;;;11.50;;
1174;SDS011;576;48.418;10.074;2024-01-11T10:07:23;12.87;;;11.43;;
1174;SDS011;576;48.418;10.074;2024-01-11T10:09:52;14.30;;;12.23;;
1174;SDS011;576;48.418;10.074;2024-01-11T10:12:20;11.30;;;10.20;;
1174;SDS011;576;48.418;10.074;2024-01-11T10:14:53;11.90;;;10.70;;
1174;SDS011;576;48.418;10.074;2024-01-11T10:17:21;12.30;;;11.00;;
1174;SDS011;576;48.418;10.074;2024-01-11T10:19:52;21.80;;;10.90;;
1174;SDS011;576;48.418;10.074;2024-01-11T10:22:22;12.23;;;11.03;;
1174;SDS011;576;48.418;10.074;2024-01-11T10:25:03;12.83;;;11.53;;
1174;SDS011;576;48.418;10.074;2024-01-11T10:27:38;13.00;;;11.73;;
1174;SDS011;576;48.418;10.074;2024-01-11T10:30:10;15.67;;;11.50;;
1174;SDS011;576;48.418;10.074;2024-01-11T10:32:43;12.40;;;10.13;;
1174;SDS011;576;48.418;10.074;2024-01-11T10:35:12;13.63;;;11.70;;
1174;SDS011;576;48.418;10.074;2024-01-11T10:37:40;11.60;;;10.00;;
1174;SDS011;576;48.418;10.074;2024-01-11T10:40:10;12.60;;;11.30;;
1174;SDS011;576;48.418;10.074;2024-01-11T10:42:41;13.53;;;12.23;;
1174;SDS011;576;48.418;10.074;2024-01-11T10:45:13;13.30;;;11.07;;
1174;SDS011;576;48.418;10.074;2024-01-11T10:47:47;14.47;;;11.13;;
1174;SDS011;576;48.418;10.074;2024-01-11T10:50:19;12.97;;;11.70;;
1174;SDS011;576;48.418;10.074;2024-01-11T10:53:02;12.83;;;11.53;;
1174;SDS011;576;48.418;10.074;2024-01-11T10:55:32;13.10;;;11.73;;
1174;SDS011;576;48.418;10.074;2024-01-11T10:58:01;13.53;;;11.70;;
1174;SDS011;576;48.418;10.074;2024-01-11T11:00:32;13.30;;;11.37;;
1174;SDS011;576;48.418;10.074;2024-01-11T11:03:03;11.43;;;10.23;;
1174;SDS011;576;48.418;10.074;2024-01-11T11:05:34;14.60;;;11.50;;
1174;SDS011;576;48.418;10.074;2024-01-11T11:08:03;12.37;;;10.30;;
1174;SDS011;576;48.418;10.074;2024-01-11T11:10:33;14.73;;;11.93;;
1174;SDS011;576;48.418;10.074;2024-01-11T11:13:02;12.10;;;11.00;;
1174;SDS011;576;48.418;10.074;2024-01-11T11:15:34;11.97;;;10.77;;
1174;SDS011;576;48.418;10.074;2024-01-11T11:18:04;12.73;;;11.43;;
1174;SDS011;576;48.418;10.074;2024-01-11T11:20:34;12.70;;;11.40;;
1174;SDS011;576;48.418;10.074;2024-01-11T11:23:05;12.17;;;11.07;;
1174;SDS011;576;48.418;10.074;2024-01-11T11:25:35;11.87;;;10.67;;
1174;SDS011;576;48.418;10.074;2024-01-11T11:28:05;12.67;;;11.37;;
1174;SDS011;576;48.418;10.074;2024-01-11T11:30:36;11.57;;;10.37;;
1174;SDS011;576;48.418;10.074;2024-01-11T11:33:09;13.17;;;11.87;;
1174;SDS011;576;48.418;10.074;2024-01-11T11:35:38;13.20;;;11.70;;
1174;SDS011;576;48.418;10.074;2024-01-11T11:38:06;13.43;;;10.87;;
1174;SDS011;576;48.418;10.074;2024-01-11T11:40:36;12.27;;;10.97;;
1174;SDS011;576;48.418;10.074;2024-01-11T11:43:06;12.30;;;10.27;;
1174;SDS011;576;48.418;10.074;2024-01-11T11:45:36;12.57;;;11.23;;
1174;SDS011;576;48.418;10.074;2024-01-11T11:51:07;12.67;;;11.37;;
1174;SDS011;576;48.418;10.074;2024-01-11T11:53:36;13.00;;;11.43;;
1174;SDS011;576;48.418;10.074;2024-01-11T11:56:06;12.00;;;10.67;;
1174;SDS011;576;48.418;10.074;2024-01-11T11:58:36;12.20;;;10.97;;
1174;SDS011;576;48.418;10.074;2024-01-11T12:01:06;12.03;;;9.60;;
1174;SDS011;576;48.418;10.074;2024-01-11T12:03:36;13.43;;;12.03;;
1174;SDS011;576;48.418;10.074;2024-01-11T12:06:05;13.33;;;11.27;;
1174;SDS011;576;48.418;10.074;2024-01-11T12:08:35;12.60;;;11.30;;
1174;SDS011;576;48.418;10.074;2024-01-11T12:11:04;13.63;;;11.87;;
1174;SDS011;576;48.418;10.074;2024-01-11T12:13:33;13.43;;;12.00;;
1174;SDS011;576;48.418;10.074;2024-01-11T12:16:02;13.40;;;11.60;;
1174;SDS011;576;48.418;10.074;2024-01-11T12:18:32;11.90;;;10.70;;
1174;SDS011;576;48.418;10.074;2024-01-11T12:21:01;12.47;;;11.20;;
1174;SDS011;576;48.418;10.074;2024-01-11T12:23:29;13.30;;;11.40;;
1174;SDS011;576;48.418;10.074;2024-01-11T12:25:59;12.60;;;11.40;;
1174;SDS011;576;48.418;10.074;2024-01-11T12:28:29;14.03;;;12.33;;
1174;SDS011;576;48.418;10.074;2024-01-11T12:30:58;12.47;;;10.97;;
1174;SDS011;576;48.418;10.074;2024-01-11T12:33:27;14.43;;;11.90;;
1174;SDS011;576;48.418;10.074;2024-01-11T12:35:57;13.23;;;11.53;;
1174;SDS011;576;48.418;10.074;2024-01-11T12:38:25;13.90;;;12.40;;
1174;SDS011;576;48.418;10.074;2024-01-11T12:40:53;14.07;;;12.40;;
1174;SDS011;576;48.418;10.074;2024-01-11T12:43:21;15.43;;;12.43;;
1174;SDS011;576;48.418;10.074;2024-01-11T12:45:50;14.20;;;12.90;;
1174;SDS011;576;48.418;10.074;2024-01-11T12:48:20;13.03;;;11.67;;
1174;SDS011;576;48.418;10.074;2024-01-11T12:50:50;13.50;;;11.50;;
1174;SDS011;576;48.418;10.074;2024-01-11T12:53:40;12.30;;;11.10;;
1174;SDS011;576;48.418;10.074;2024-01-11T12:56:09;14.20;;;12.57;;
1174;SDS011;576;48.418;10.074;2024-01-11T12:58:38;13.50;;;11.87;;
1174;SDS011;576;48.418;10.074;2024-01-11T13:01:07;12.77;;;11.43;;
1174;SDS011;576;48.418;10.074;2024-01-11T13:03:37;12.80;;;11.60;;
1174;SDS011;576;48.418;10.074;2024-01-11T13:06:06;11.77;;;10.57;;
1174;SDS011;576;48.418;10.074;2024-01-11T13:08:37;11.50;;;10.40;;
1174;SDS011;576;48.418;10.074;2024-01-11T13:11:08;13.07;;;11.87;;
1174;SDS011;576;48.418;10.074;2024-01-11T13:13:37;15.80;;;11.50;;
1174;SDS011;576;48.418;10.074;2024-01-11T13:16:06;13.17;;;11.87;;
1174;SDS011;576;48.418;10.074;2024-01-11T13:18:37;12.20;;;10.70;;
1174;SDS011;576;48.418;10.074;2024-01-11T13:21:06;11.90;;;10.80;;
1174;SDS011;576;48.418;10.074;2024-01-11T13:23:34;13.60;;;12.20;;
1174;SDS011;576;48.418;10.074;2024-01-11T13:26:04;11.97;;;10.77;;
1174;SDS011;576;48.418;10.074;2024-01-11T13:28:34;11.57;;;9.93;;
1174;SDS011;576;48.418;10.074;2024-01-11T13:31:02;11.60;;;10.53;;
1174;SDS011;576;48.418;10.074;2024-01-11T13:33:31;12.63;;;11.43;;
1174;SDS011;576;48.418;10.074;2024-01-11T13:35:59;12.80;;;10.87;;
1174;SDS011;576;48.418;10.074;2024-01-11T13:38:27;13.30;;;12.00;;
1174;SDS011;576;48.418;10.074;2024-01-11T13:40:56;12.33;;;11.13;;
1174;SDS011;576;48.418;10.074;2024-01-11T13:43:24;11.77;;;10.37;;
1174;SDS011;576;48.418;10.074;2024-01-11T13:45:54;12.00;;;9.87;;
1174;SDS011;576;48.418;10.074;2024-01-11T13:48:22;12.40;;;11.20;;
1174;SDS011;576;48.418;10.074;2024-01-11T13:50:51;11.27;;;10.23;;
1174;SDS011;576;48.418;10.074;2024-01-11T13:53:19;12.10;;;10.07;;
1174;SDS011;576;48.418;10.074;2024-01-11T13:55:47;12.67;;;11.50;;
1174;SDS011;576;48.418;10.074;2024-01-11T13:58:16;12.30;;;11.20;;
1174;SDS011;576;48.418;10.074;2024-01-11T14:00:45;12.17;;;10.87;;
1174;SDS011;576;48.418;10.074;2024-01-11T14:03:15;11.00;;;9.83;;
1174;SDS011;576;48.418;10.074;2024-01-11T14:05:43;12.50;;;11.30;;
1174;SDS011;576;48.418;10.074;2024-01-11T14:08:12;11.07;;;9.97;;
1174;SDS011;576;48.418;10.074;2024-01-11T14:10:40;11.33;;;10.33;;
1174;SDS011;576;48.418;10.074;2024-01-11T14:13:09;10.97;;;9.80;;
1174;SDS011;576;48.418;10.074;2024-01-11T14:15:37;10.90;;;9.80;;
1174;SDS011;576;48.418;10.074;2024-01-11T14:18:06;11.63;;;10.40;;
1174;SDS011;576;48.418;10.074;2024-01-11T14:20:37;10.90;;;9.80;;
1174;SDS011;576;48.418;10.074;2024-01-11T14:23:05;10.87;;;9.87;;
1174;SDS011;576;48.418;10.074;2024-01-11T14:25:34;10.77;;;9.70;;
1174;SDS011;576;48.418;10.074;2024-01-11T14:28:03;11.03;;;9.80;;
1174;SDS011;576;48.418;10.074;2024-01-11T14:30:31;10.50;;;9.60;;
1174;SDS011;576;48.418;10.074;2024-01-11T14:33:00;11.27;;;10.07;;
1174;SDS011;576;48.418;10.074;2024-01-11T14:35:28;10.13;;;9.13;;
1174;SDS011;576;48.418;10.074;2024-01-11T14:37:59;10.70;;;9.70;;
1174;SDS011;576;48.418;10.074;2024-01-11T14:40:27;12.80;;;11.50;;
1174;SDS011;576;48.418;10.074;2024-01-11T14:42:55;11.60;;;10.40;;
1174;SDS011;576;48.418;10.074;2024-01-11T14:45:24;10.93;;;9.73;;
1174;SDS011;576;48.418;10.074;2024-01-11T14:47:53;10.50;;;9.30;;
1174;SDS011;576;48.418;10.074;2024-01-11T14:50:22;11.40;;;10.27;;
1174;SDS011;576;48.418;10.074;2024-01-11T14:52:52;12.30;;;9.77;;
1174;SDS011;576;48.418;10.074;2024-01-11T14:55:21;12.40;;;11.13;;
1174;SDS011;576;48.418;10.074;2024-01-11T14:57:50;16.30;;;12.00;;
1174;SDS011;576;48.418;10.074;2024-01-11T15:00:21;12.63;;;11.33;;
1174;SDS011;576;48.418;10.074;2024-01-11T15:02:50;13.77;;;12.30;;
1174;SDS011;576;48.418;10.074;2024-01-11T15:05:18;13.70;;;11.17;;
1174;SDS011;576;48.418;10.074;2024-01-11T15:07:47;13.97;;;12.47;;
1174;SDS011;576;48.418;10.074;2024-01-11T15:10:15;14.77;;;13.23;;
1174;SDS011;576;48.418;10.074;2024-01-11T15:12:45;13.83;;;12.20;;
1174;SDS011;576;48.418;10.074;2024-01-11T15:15:13;15.50;;;11.83;;